Airfield :
LOGIN :

Register | Disclaimer

   EN    FR    IT 

 










Legend :    VFR   Marginal VFR   IFR   Intensive IFR   Very Intensive IFR
Visi :
Ceiling :
>= 8 km
>= 3000ft
5 to 8 km
1000 to 3000 ft
1500m to 5 km
500 to 1000 ft
800 to 1500m
200 to 500 ft
< 800m
< 200 ft
Symbols :   Thunderstorms  Fog  Heavy snow  Heavy precipitations  Wind > 20 kt
SIGMETs :     Misc.  Thunderstorms  Icing  Turbulence  Mountain Waves  Volcanic Ashes






- Airport Elevation : 1234 ft
- IATA code : LUX


ELLX - Luxembourg Findel

CURRENT METAR :
  • 181350Z 35005KT 270V060 9999 FEW039 09/M01 Q1019 NOSIG

EXPIRED METARs :
  • 181320Z 01008KT 330V070 9999 FEW033 08/00 Q1019 NOSIG
  • 181250Z 03007KT 340V060 9999 FEW033TCU BKN050 07/01 Q1019 NOSIG
  • 181220Z VRB04KT 9999 FEW030TCU BKN040 07/01 Q1019 NOSIG
  • 181150Z 05008KT 9999 FEW025 BKN044 07/01 Q1019 NOSIG
  • 181120Z 05007KT 360V100 9999 SCT024 BKN039 07/02 Q1019 NOSIG
  • 181050Z 04009KT 010V070 9999 FEW022 SCT026 BKN033 06/01 Q1019 NOSIG
  • 181020Z 02011KT 350V070 9999 SCT021 BKN039 06/01 Q1018 NOSIG
  • 180950Z 35011KT 300V030 9999 SCT021 BKN031 06/01 Q1018 NOSIG
  • 180920Z 35010KT 330V030 9999 SCT022 BKN030 06/01 Q1018 NOSIG

TAF TAF ELLX
Valid from the 18 at 12:00 until the 19 at 18:00 UTC


181100Z 1812/1918 35010KT 9999 BKN025
PROB40
TEMPO 1812/1817 SCT020TCU
BECMG 1820/1822 24010KT
BECMG 1903/1905 24015G30KT BKN010
TEMPO 1904/1911 4500 RADZ BKN005
TEMPO 1911/1918 4500 SHRA SCT008TCU
ATIS : +352 4798 27300
Met : +352 4798 27010 / 27050



MET'MAP, your aeronautical weather chart ! - Copyright ORBIFLY December 2007 - Disclaimer

ORBIFLY MET'MAP TEAM :

Programming & Development : Alexandra Zaïnal
Original concept : Baudouin d'Aumeries
Technical & hardware support : Manuel Goepfert
Assistance : Marc-Olivier Méhu




SOURCES & CREDITS :

   NOAA